createdAt,value
2019-05-06T00:00:59.744Z,13.17
2019-05-06T00:03:34.215Z,13.21
2019-05-06T00:06:06.348Z,13.24
2019-05-06T00:08:38.719Z,13.27
2019-05-06T00:11:11.008Z,13.32
2019-05-06T00:13:44.513Z,13.35
2019-05-06T00:16:17.087Z,13.38
2019-05-06T00:18:49.665Z,13.39
2019-05-06T00:21:24.370Z,13.46
2019-05-06T00:23:56.465Z,13.50
2019-05-06T00:26:34.123Z,13.50
2019-05-06T00:29:09.197Z,13.49
2019-05-06T00:31:43.885Z,13.49
2019-05-06T00:34:15.887Z,13.47
2019-05-06T00:36:48.276Z,13.41
2019-05-06T00:39:24.210Z,13.40
2019-05-06T00:41:57.954Z,13.38
2019-05-06T00:44:30.406Z,13.29
2019-05-06T00:47:04.322Z,13.27
2019-05-06T00:49:36.676Z,13.25
2019-05-06T00:52:09.371Z,13.29
2019-05-06T00:54:43.644Z,13.31
2019-05-06T00:57:15.947Z,13.37
2019-05-06T00:59:49.759Z,13.42
2019-05-06T01:02:23.464Z,13.44
2019-05-06T01:04:55.738Z,13.25
2019-05-06T01:07:28.022Z,13.21
2019-05-06T01:10:00.494Z,13.19
2019-05-06T01:12:34.646Z,13.16
2019-05-06T01:15:09.139Z,13.14
2019-05-06T01:17:44.418Z,13.20
2019-05-06T01:20:17.764Z,13.23
2019-05-06T01:22:50.026Z,13.17
2019-05-06T01:25:23.743Z,13.23
2019-05-06T01:27:56.024Z,13.25
2019-05-06T01:30:28.296Z,13.25
2019-05-06T01:33:00.453Z,13.29
2019-05-06T01:35:35.061Z,13.33
2019-05-06T01:38:20.672Z,13.33
2019-05-06T01:40:54.770Z,13.42
2019-05-06T01:43:28.900Z,13.49
2019-05-06T01:46:01.069Z,13.54
2019-05-06T01:48:50.027Z,13.55
2019-05-06T01:51:24.119Z,13.58
2019-05-06T01:53:56.615Z,13.62
2019-05-06T01:56:28.869Z,13.64
2019-05-06T01:59:01.261Z,13.68
2019-05-06T02:01:34.272Z,13.69
2019-05-06T02:04:07.633Z,13.72
2019-05-06T02:06:39.923Z,13.75
2019-05-06T02:09:15.857Z,13.77
2019-05-06T02:11:48.385Z,13.78
2019-05-06T02:14:20.608Z,13.77
2019-05-06T02:16:54.540Z,13.77
2019-05-06T02:19:26.931Z,13.78
2019-05-06T02:22:01.133Z,13.79
2019-05-06T02:24:35.150Z,13.79
2019-05-06T02:27:07.826Z,13.84
2019-05-06T02:29:43.451Z,13.84
2019-05-06T02:32:26.078Z,13.85
2019-05-06T02:35:07.769Z,13.86
2019-05-06T02:37:46.871Z,13.87
2019-05-06T02:40:25.064Z,13.91
2019-05-06T02:42:55.846Z,13.91
2019-05-06T02:45:28.227Z,13.96
2019-05-06T02:48:14.155Z,13.95
2019-05-06T02:50:48.012Z,13.95
2019-05-06T02:53:23.595Z,13.96
2019-05-06T02:55:56.443Z,14.02
2019-05-06T02:58:33.627Z,14.09
2019-05-06T03:01:06.222Z,14.18
2019-05-06T03:03:38.689Z,14.26
2019-05-06T03:06:13.110Z,14.29
2019-05-06T03:08:45.283Z,14.33
2019-05-06T03:11:17.865Z,14.37
2019-05-06T03:13:50.337Z,14.43
2019-05-06T03:16:23.787Z,14.49
2019-05-06T03:18:56.094Z,14.53
2019-05-06T03:21:33.653Z,14.54
2019-05-06T03:24:18.360Z,14.56
2019-05-06T03:26:56.856Z,14.54
2019-05-06T03:29:29.454Z,14.57
2019-05-06T03:32:06.135Z,14.61
2019-05-06T03:34:57.961Z,14.68
2019-05-06T03:37:09.646Z,14.75
2019-05-06T03:39:43.367Z,14.77
2019-05-06T03:42:16.597Z,14.87
2019-05-06T03:44:53.293Z,14.93
2019-05-06T03:47:29.469Z,15.03
2019-05-06T03:50:04.727Z,15.10
2019-05-06T03:52:35.876Z,15.14
2019-05-06T03:55:08.447Z,15.16
2019-05-06T03:57:42.764Z,15.16
2019-05-06T04:00:16.295Z,15.21
2019-05-06T04:02:48.854Z,15.23
2019-05-06T04:05:23.775Z,15.24
2019-05-06T04:07:55.587Z,15.29
2019-05-06T04:10:28.126Z,15.29
2019-05-06T04:13:04.135Z,15.35
2019-05-06T04:15:47.653Z,15.39
2019-05-06T04:18:23.855Z,15.35
2019-05-06T04:20:56.845Z,15.49
2019-05-06T04:23:33.159Z,15.56
2019-05-06T04:26:16.130Z,15.61
2019-05-06T04:28:48.517Z,15.64
2019-05-06T04:31:22.865Z,15.70
2019-05-06T04:34:08.428Z,15.72
2019-05-06T04:36:28.744Z,15.76
2019-05-06T04:39:13.180Z,15.82
2019-05-06T04:41:45.144Z,15.91
2019-05-06T04:44:17.693Z,15.97
2019-05-06T04:46:49.982Z,16.06
2019-05-06T04:49:23.746Z,16.12
2019-05-06T04:51:56.059Z,16.18
2019-05-06T04:54:28.247Z,16.25
2019-05-06T04:57:00.533Z,16.30
2019-05-06T04:59:33.104Z,16.30
2019-05-06T05:02:05.399Z,16.34
2019-05-06T05:04:38.031Z,16.46
2019-05-06T05:07:12.637Z,16.51
2019-05-06T05:09:44.410Z,16.63
2019-05-06T05:12:18.075Z,16.71
2019-05-06T05:14:55.196Z,16.81
2019-05-06T05:17:33.114Z,16.85
2019-05-06T05:20:07.670Z,16.97
2019-05-06T05:22:42.219Z,17.08
2019-05-06T05:25:13.731Z,17.20
2019-05-06T05:27:46.132Z,17.32
2019-05-06T05:30:18.466Z,17.43
2019-05-06T05:32:52.092Z,17.54
2019-05-06T05:35:24.328Z,17.70
2019-05-06T05:37:56.733Z,17.81
2019-05-06T05:40:29.288Z,17.81
2019-05-06T05:43:18.554Z,17.93
2019-05-06T05:45:52.331Z,17.97
2019-05-06T05:48:42.538Z,18.12
2019-05-06T05:51:15.009Z,18.25
2019-05-06T05:53:47.473Z,18.39
2019-05-06T05:56:19.760Z,18.46
2019-05-06T05:58:53.555Z,18.58
2019-05-06T06:01:25.901Z,18.61
2019-05-06T11:49:04.964Z,25.96
2019-05-06T11:51:38.144Z,25.58
2019-05-06T11:54:17.449Z,25.54
2019-05-06T11:56:50.904Z,25.59
2019-05-06T11:59:19.489Z,25.60
2019-05-06T12:01:53.693Z,25.57
2019-05-06T12:04:25.916Z,25.76
2019-05-06T12:07:10.335Z,25.75
2019-05-06T12:09:35.442Z,25.90
2019-05-06T12:12:07.713Z,25.90
2019-05-06T12:14:40.077Z,25.81
2019-05-06T12:17:12.831Z,25.82
2019-05-06T12:19:45.194Z,25.85
2019-05-06T12:22:17.221Z,25.82
2019-05-06T12:24:49.355Z,25.84
2019-05-06T12:27:26.285Z,25.77
2019-05-06T12:29:58.790Z,25.59
2019-05-06T12:32:33.095Z,25.61
2019-05-06T12:35:07.216Z,25.60
2019-05-06T12:37:44.056Z,25.54
2019-05-06T12:40:16.248Z,25.47
2019-05-06T12:42:49.910Z,25.51
2019-05-06T12:45:35.601Z,25.50
2019-05-06T12:48:13.071Z,25.51
2019-05-06T12:50:44.868Z,25.54
2019-05-06T12:53:17.031Z,25.48
2019-05-06T12:55:49.276Z,25.29
2019-05-06T12:58:23.369Z,25.20
2019-05-06T13:00:55.557Z,25.14
2019-05-06T13:03:27.736Z,25.20
2019-05-06T13:06:00.000Z,25.16
2019-05-06T13:08:52.647Z,25.07
2019-05-06T13:11:07.860Z,24.99
2019-05-06T13:13:55.566Z,25.00
2019-05-06T13:16:15.871Z,24.97
2019-05-06T13:18:51.658Z,24.93
2019-05-06T13:21:22.468Z,24.96
2019-05-06T13:23:56.250Z,24.87
2019-05-06T13:26:28.520Z,24.94
2019-05-06T13:29:04.350Z,24.95
2019-05-06T13:31:37.664Z,24.91
2019-05-06T13:34:13.381Z,24.92
2019-05-06T13:36:45.820Z,24.96
2019-05-06T13:39:18.076Z,24.95
2019-05-06T13:41:52.978Z,24.89
2019-05-06T13:44:25.239Z,24.95
2019-05-06T13:46:57.933Z,24.93
2019-05-06T13:49:38.024Z,24.92
2019-05-06T13:54:18.876Z,24.77
2019-05-06T13:56:52.534Z,24.70
2019-05-06T13:59:29.452Z,24.63
2019-05-06T14:02:00.305Z,24.65
2019-05-06T14:04:32.777Z,24.67
2019-05-06T14:07:07.396Z,24.61
2019-05-06T14:09:42.755Z,24.55
2019-05-06T14:12:14.251Z,24.36
2019-05-06T14:14:46.484Z,24.23
2019-05-06T14:17:18.570Z,24.21
2019-05-06T14:19:53.147Z,24.09
2019-05-06T14:22:24.633Z,24.01
2019-05-06T14:24:58.538Z,24.04
2019-05-06T14:27:32.769Z,24.07
2019-05-06T14:30:08.888Z,24.13
2019-05-06T14:32:43.286Z,24.09
2019-05-06T14:35:15.502Z,24.14
2019-05-06T14:37:47.967Z,24.17
2019-05-06T14:40:22.575Z,24.18
2019-05-06T14:42:54.778Z,24.30
2019-05-06T14:45:27.040Z,24.32
2019-05-06T14:47:59.632Z,24.31
2019-05-06T14:50:44.404Z,24.31
2019-05-06T14:53:06.337Z,24.40
2019-05-06T14:55:39.727Z,24.34
2019-05-06T14:58:12.128Z,24.42
2019-05-06T15:00:44.586Z,24.43
2019-05-06T15:03:16.951Z,24.41
2019-05-06T15:05:49.319Z,24.42
2019-05-06T15:08:22.492Z,24.42
2019-05-06T15:10:54.982Z,24.56
2019-05-06T15:13:27.790Z,24.56
2019-05-06T15:16:03.487Z,24.57
2019-05-06T15:18:34.272Z,24.63
2019-05-06T16:04:02.234Z,24.52
2019-05-06T16:06:35.815Z,24.07
2019-05-06T16:09:08.311Z,23.85
2019-05-06T16:11:44.525Z,23.69
2019-05-06T16:14:16.132Z,23.55
2019-05-06T16:16:48.589Z,23.43
2019-05-06T16:19:22.839Z,23.33
2019-05-06T16:21:54.978Z,23.21
2019-05-06T16:24:34.573Z,23.12
2019-05-06T16:27:05.578Z,22.98
2019-05-06T16:29:37.953Z,22.86
2019-05-06T16:32:10.868Z,22.75
2019-05-06T16:34:44.029Z,22.63
2019-05-06T16:37:16.409Z,22.50
2019-05-06T16:39:48.781Z,22.40
2019-05-06T16:42:22.588Z,22.28
2019-05-06T16:44:54.860Z,22.20
2019-05-06T16:47:38.045Z,22.08
2019-05-06T16:50:13.365Z,21.98
2019-05-06T16:52:45.930Z,21.86
2019-05-06T16:55:19.817Z,21.72
2019-05-06T16:57:53.928Z,21.63
2019-05-06T17:00:27.841Z,21.44
2019-05-06T17:03:07.668Z,21.28
2019-05-06T17:05:44.662Z,21.14
2019-05-06T17:08:17.023Z,21.03
2019-05-06T17:10:49.318Z,20.82
2019-05-06T17:13:22.820Z,20.65
2019-05-06T17:15:55.185Z,20.52
2019-05-06T17:18:27.767Z,20.43
2019-05-06T17:21:00.346Z,20.31
2019-05-06T17:23:33.947Z,20.18
2019-05-06T17:26:06.325Z,20.10
2019-05-06T17:28:46.379Z,20.03
2019-05-06T17:31:22.325Z,19.96
2019-05-06T17:34:09.325Z,19.85
2019-05-06T17:36:42.240Z,19.74
2019-05-06T17:39:14.586Z,19.61
2019-05-06T17:41:49.161Z,19.38
2019-05-06T17:44:22.836Z,19.16
2019-05-06T17:47:05.847Z,19.01
2019-05-06T17:49:39.451Z,18.87
2019-05-06T17:52:22.554Z,18.78
2019-05-06T17:54:54.851Z,18.72
2019-05-06T17:57:27.204Z,18.64
2019-05-06T17:59:59.679Z,18.49
2019-05-06T18:02:33.077Z,18.43
2019-05-06T18:05:06.084Z,18.35
2019-05-06T18:07:39.276Z,18.30
2019-05-06T18:10:12.087Z,18.27
2019-05-06T18:12:44.521Z,18.17
2019-05-06T18:15:17.120Z,18.10
2019-05-06T18:17:52.477Z,18.02
2019-05-06T18:20:24.923Z,17.86
2019-05-06T18:22:57.603Z,17.75
2019-05-06T18:25:32.806Z,17.65
2019-05-06T18:28:05.235Z,17.60
2019-05-06T18:30:37.917Z,17.56
2019-05-06T18:33:10.285Z,17.45
2019-05-06T18:35:42.651Z,17.22
2019-05-06T18:38:15.142Z,17.12
2019-05-06T18:40:47.606Z,17.05
2019-05-06T18:43:20.204Z,16.87
2019-05-06T18:45:52.574Z,16.87
2019-05-06T18:48:29.540Z,16.78
2019-05-06T18:50:59.173Z,16.63
2019-05-06T18:53:33.128Z,16.62
2019-05-06T18:56:06.168Z,16.62
2019-05-06T18:58:38.747Z,16.63
2019-05-06T19:01:13.211Z,16.61
2019-05-06T19:03:46.551Z,16.59
2019-05-06T19:06:18.824Z,16.50
2019-05-06T19:09:02.576Z,16.46
2019-05-06T19:11:36.498Z,16.37
2019-05-06T19:14:08.744Z,16.28
2019-05-06T19:16:49.956Z,16.29
2019-05-06T19:19:15.334Z,16.23
2019-05-06T19:21:47.824Z,16.06
2019-05-06T19:24:22.467Z,15.93
2019-05-06T19:26:54.110Z,15.87
2019-05-06T19:29:27.011Z,15.77
2019-05-06T19:31:59.255Z,15.66
2019-05-06T19:34:35.210Z,15.67
2019-05-06T19:37:07.074Z,15.70
2019-05-06T19:39:39.672Z,15.70
2019-05-06T19:42:12.971Z,15.72
2019-05-06T19:44:46.363Z,15.74
2019-05-06T19:47:18.929Z,15.63
2019-05-06T19:49:53.156Z,15.56
2019-05-06T19:52:25.432Z,15.59
2019-05-06T19:54:58.019Z,15.55
2019-05-06T19:57:32.346Z,15.50
2019-05-06T20:00:05.427Z,15.48
2019-05-06T20:02:39.233Z,15.50
2019-05-06T20:05:13.141Z,15.47
2019-05-06T20:07:47.151Z,15.55
2019-05-06T20:10:33.224Z,15.53
2019-05-06T20:13:06.318Z,15.51
2019-05-06T20:15:39.618Z,15.48
2019-05-06T20:18:11.781Z,15.51
2019-05-06T20:20:44.366Z,15.52
2019-05-06T20:23:16.736Z,15.41
2019-05-06T20:25:49.125Z,15.49
2019-05-06T20:28:22.742Z,15.47
2019-05-06T20:30:56.213Z,15.40
2019-05-06T20:33:28.913Z,15.41
2019-05-06T20:36:02.414Z,15.41
2019-05-06T20:38:34.566Z,15.46
2019-05-06T20:41:07.269Z,15.51
2019-05-06T20:43:42.362Z,15.49
2019-05-06T20:46:14.783Z,15.48
2019-05-06T20:48:47.154Z,15.47
2019-05-06T20:51:21.800Z,15.44
2019-05-06T20:53:53.422Z,15.43
2019-05-06T20:56:26.001Z,15.41
2019-05-06T20:58:58.583Z,15.46
2019-05-06T21:01:32.627Z,15.47
2019-05-06T21:04:04.990Z,15.48
2019-05-06T21:06:37.548Z,15.46
2019-05-06T21:09:12.222Z,15.47
2019-05-06T21:11:44.243Z,15.53
2019-05-06T21:14:16.824Z,15.58
2019-05-06T21:16:49.216Z,15.64
2019-05-06T21:19:22.223Z,15.70
2019-05-06T21:21:54.765Z,15.75
2019-05-06T21:24:27.158Z,15.76
2019-05-06T21:27:02.817Z,15.80
2019-05-06T21:29:34.772Z,15.76
2019-05-06T21:32:07.134Z,15.78
2019-05-06T21:34:39.724Z,15.81
2019-05-06T21:37:12.399Z,15.79
2019-05-06T21:39:44.763Z,15.82
2019-05-06T21:42:18.999Z,15.85
2019-05-06T21:44:52.269Z,15.87
2019-05-06T21:47:24.656Z,15.87
2019-05-06T21:49:57.258Z,15.89
2019-05-06T21:52:38.885Z,15.92
2019-05-06T21:55:04.359Z,15.93
2019-05-06T21:57:36.625Z,15.96
2019-05-06T22:00:12.662Z,15.91
2019-05-06T22:02:46.289Z,15.90
2019-05-06T22:05:18.954Z,15.85
2019-05-06T22:07:52.567Z,15.83
2019-05-06T22:10:25.238Z,15.79
2019-05-06T22:12:57.633Z,15.78
2019-05-06T22:15:32.257Z,15.70
2019-05-06T22:18:04.224Z,15.69
2019-05-06T22:20:55.222Z,15.65
2019-05-06T22:23:28.911Z,15.61
2019-05-06T22:26:10.836Z,15.58
2019-05-06T22:28:35.144Z,15.63
2019-05-06T22:31:07.584Z,15.66
2019-05-06T22:33:39.950Z,15.71
2019-05-06T22:36:13.197Z,15.76
2019-05-06T22:38:45.527Z,15.77
2019-05-06T22:41:18.006Z,15.77
2019-05-06T22:43:50.489Z,15.80
2019-05-06T22:46:23.562Z,15.80
2019-05-06T22:48:56.053Z,15.83
2019-05-06T22:51:28.415Z,15.85
2019-05-06T22:54:02.726Z,15.82
2019-05-06T22:56:34.903Z,15.77
2019-05-06T22:59:07.394Z,15.72
2019-05-06T23:01:43.089Z,15.78
2019-05-06T23:04:16.526Z,15.83
2019-05-06T23:06:48.609Z,15.86
2019-05-06T23:09:22.887Z,15.86
2019-05-06T23:11:54.897Z,15.86
2019-05-06T23:14:31.499Z,15.83
2019-05-06T23:17:02.882Z,15.84
2019-05-06T23:19:35.496Z,15.87
2019-05-06T23:22:07.873Z,15.87
2019-05-06T23:24:40.249Z,15.88
2019-05-06T23:27:12.745Z,15.84
2019-05-06T23:29:45.155Z,15.84
2019-05-06T23:32:17.274Z,15.83
2019-05-06T23:34:52.358Z,15.81
2019-05-06T23:37:23.582Z,15.84
2019-05-06T23:40:35.006Z,15.89
2019-05-06T23:43:44.018Z,15.93
2019-05-06T23:46:53.145Z,15.89
2019-05-06T23:50:03.539Z,15.91
2019-05-06T23:53:12.995Z,15.95
2019-05-06T23:56:21.902Z,15.93
2019-05-06T23:58:54.291Z,15.95
